Avalon, Missouri
Current Conditions -  °F | °C
As of 12:15 PM on Wednesday 26 Nov 2014 (Local Time) from KMHL Reporting Station
Overcast Overcast  
Wind Chill: 37°   Ceiling: 2900
Heat Index: 43°   Visibility: 10mi
Dew Point: 36°   Wind: 10mph
Humidity: 76%   Direction: 280°W
Pressure: 29.96"   Gusts: 17mph
Location:  39.66°N, 93.44°W
Report Text: KMHL 261815Z AUTO 28009G15KT 10SM BKN029 OVC035 06/02 A2996 RMK AO2
Loading
Personal Weather Stations






























Interactive Weather Map New forecast layout! Learn more

10-Day Weather Forecast

Advertisements
Track Severe Weather on mobile